createdAt,value
2019-04-14T00:00:38.329Z,31.00
2019-04-14T00:01:38.894Z,31.30
2019-04-14T00:02:38.206Z,29.40
2019-04-14T00:03:38.992Z,30.70
2019-04-14T00:04:37.951Z,29.40
2019-04-14T00:05:38.623Z,28.80
2019-04-14T00:06:37.884Z,28.30
2019-04-14T00:07:38.481Z,30.20
2019-04-14T00:08:37.898Z,29.60
2019-04-14T00:09:38.069Z,29.40
2019-04-14T00:10:37.894Z,29.10
2019-04-14T00:11:38.691Z,31.10
2019-04-14T00:12:38.404Z,31.20
2019-04-14T00:13:37.834Z,30.10
2019-04-14T00:14:38.256Z,30.20
2019-04-14T00:15:42.697Z,30.30
2019-04-14T00:16:38.794Z,31.30
2019-04-14T00:17:37.768Z,30.60
2019-04-14T00:18:38.257Z,31.50
2019-04-14T00:19:37.748Z,30.90
2019-04-14T00:20:38.235Z,30.60
2019-04-14T00:21:38.864Z,32.10
2019-04-14T00:22:38.124Z,32.50
2019-04-14T00:23:37.706Z,31.30
2019-04-14T00:24:38.126Z,31.70
2019-04-14T00:25:37.694Z,29.80
2019-04-14T00:26:37.988Z,31.30
2019-04-14T00:27:38.546Z,31.30
2019-04-14T00:28:38.274Z,28.70
2019-04-14T00:29:37.669Z,29.10
2019-04-14T00:30:38.243Z,32.50
2019-04-14T00:31:37.647Z,30.00
2019-04-14T00:32:37.924Z,30.80
2019-04-14T00:33:38.821Z,31.80
2019-04-14T00:34:37.684Z,31.60
2019-04-14T00:35:38.567Z,34.00
2019-04-14T00:36:37.590Z,33.00
2019-04-14T00:37:38.061Z,34.10
2019-04-14T00:38:37.549Z,31.00
2019-04-14T00:39:37.955Z,31.00
2019-04-14T00:40:37.552Z,34.40
2019-04-14T00:41:44.816Z,30.60
2019-04-14T00:42:38.790Z,30.00
2019-04-14T00:43:37.510Z,29.80
2019-04-14T00:44:38.666Z,30.50
2019-04-14T00:45:45.264Z,30.60
2019-04-14T00:46:38.793Z,32.00
2019-04-14T00:47:49.825Z,30.80
2019-04-14T00:48:38.740Z,29.30
2019-04-14T00:49:37.630Z,29.20
2019-04-14T00:50:38.679Z,28.90
2019-04-14T00:51:39.340Z,31.50
2019-04-14T00:52:37.446Z,29.50
2019-04-14T00:53:38.178Z,30.60
2019-04-14T00:54:37.411Z,32.60
2019-04-14T00:55:37.994Z,30.40
2019-04-14T00:56:37.362Z,30.50
2019-04-14T00:57:37.673Z,33.20
2019-04-14T00:58:37.351Z,31.00
2019-04-14T00:59:37.616Z,34.40
2019-04-14T01:00:38.593Z,36.00
2019-04-14T01:01:37.307Z,31.30
2019-04-14T01:02:38.489Z,30.80
2019-04-14T01:03:37.391Z,33.70
2019-04-14T01:04:38.291Z,29.70
2019-04-14T01:05:37.519Z,33.00
2019-04-14T01:06:38.259Z,32.90
2019-04-14T01:07:37.254Z,33.30
2019-04-14T01:08:38.095Z,32.60
2019-04-14T01:09:37.273Z,35.60
2019-04-14T01:10:37.228Z,35.30
2019-04-14T01:11:37.851Z,31.50
2019-04-14T01:12:37.193Z,31.60
2019-04-14T01:13:37.496Z,32.00
2019-04-14T01:14:37.272Z,32.50
2019-04-14T01:15:50.120Z,34.70
2019-04-14T01:16:38.613Z,34.00
2019-04-14T01:17:37.382Z,32.00
2019-04-14T01:18:37.130Z,32.90
2019-04-14T01:19:37.384Z,33.70
2019-04-14T01:20:38.259Z,33.00
2019-04-14T01:21:37.141Z,34.40
2019-04-14T01:22:38.085Z,31.90
2019-04-14T01:23:37.077Z,33.60
2019-04-14T01:24:38.124Z,34.70
2019-04-14T01:25:37.058Z,33.70
2019-04-14T01:26:37.800Z,33.40
2019-04-14T01:27:37.049Z,33.60
2019-04-14T01:28:37.561Z,36.70
2019-04-14T01:29:38.372Z,36.10
2019-04-14T01:30:37.292Z,34.30
2019-04-14T01:31:38.150Z,31.70
2019-04-14T01:32:37.233Z,34.90
2019-04-14T01:33:37.901Z,33.60
2019-04-14T01:34:37.104Z,34.80
2019-04-14T01:35:37.901Z,36.30
2019-04-14T01:36:36.960Z,36.80
2019-04-14T01:37:37.607Z,33.80
2019-04-14T01:38:36.933Z,35.40
2019-04-14T01:39:37.226Z,36.60
2019-04-14T01:40:38.048Z,35.60
2019-04-14T01:41:36.901Z,34.50
2019-04-14T01:42:37.736Z,31.60
2019-04-14T01:43:36.868Z,32.40
2019-04-14T01:44:37.367Z,32.80
2019-04-14T01:45:38.120Z,32.40
2019-04-14T01:46:37.417Z,33.10
2019-04-14T01:47:37.718Z,32.80
2019-04-14T01:48:36.816Z,31.90
2019-04-14T01:49:37.633Z,31.40
2019-04-14T01:50:36.799Z,32.90
2019-04-14T01:51:37.410Z,31.60
2019-04-14T01:52:36.798Z,36.30
2019-04-14T01:53:37.843Z,32.10
2019-04-14T01:54:36.753Z,32.80
2019-04-14T01:55:37.328Z,31.00
2019-04-14T01:56:36.732Z,34.00
2019-04-14T01:57:37.076Z,34.00
2019-04-14T01:58:36.762Z,32.80
2019-04-14T01:59:36.952Z,30.90
2019-04-14T02:00:36.693Z,36.20
2019-04-14T02:01:36.798Z,33.80
2019-04-14T02:02:37.712Z,32.10
2019-04-14T02:03:36.716Z,34.30
2019-04-14T02:04:37.719Z,33.90
2019-04-14T02:05:36.637Z,30.70
2019-04-14T02:06:37.619Z,32.10
2019-04-14T02:07:36.624Z,32.20
2019-04-14T02:08:37.231Z,32.30
2019-04-14T02:09:37.830Z,33.80
2019-04-14T02:10:36.894Z,32.50
2019-04-14T02:11:37.698Z,30.60
2019-04-14T02:12:36.632Z,32.60
2019-04-14T02:13:37.569Z,31.60
2019-04-14T02:14:36.573Z,32.80
2019-04-14T02:15:37.407Z,30.90
2019-04-14T02:16:44.299Z,36.10
2019-04-14T02:17:37.511Z,32.60
2019-04-14T02:18:36.541Z,33.30
2019-04-14T02:19:37.172Z,33.20
2019-04-14T02:20:36.482Z,33.60
2019-04-14T02:21:36.737Z,33.70
2019-04-14T02:22:37.609Z,31.40
2019-04-14T02:23:36.642Z,32.90
2019-04-14T02:24:37.493Z,35.10
2019-04-14T02:25:36.450Z,35.60
2019-04-14T02:26:37.346Z,35.60
2019-04-14T02:27:36.421Z,33.20
2019-04-14T02:28:37.531Z,36.00
2019-04-14T02:29:36.408Z,35.40
2019-04-14T02:30:45.732Z,35.00
2019-04-14T02:32:05.678Z,33.60
2019-04-14T02:33:09.105Z,35.20
2019-04-14T02:34:02.275Z,34.10
2019-04-14T02:35:02.897Z,38.00
2019-04-14T02:36:17.954Z,33.80
2019-04-14T02:37:06.606Z,34.60
2019-04-14T02:38:13.806Z,32.50
2019-04-14T02:39:06.148Z,34.30
2019-04-14T02:40:04.052Z,34.20
2019-04-14T02:42:19.411Z,32.60
2019-04-14T02:43:04.075Z,34.10
2019-04-14T02:44:04.885Z,33.30
2019-04-14T02:45:08.632Z,35.10
2019-04-14T02:47:36.383Z,35.60
2019-04-14T02:51:04.229Z,35.60
2019-04-14T02:52:04.690Z,35.90
2019-04-14T02:53:09.109Z,34.10
2019-04-14T02:54:10.056Z,33.30
2019-04-14T02:56:08.271Z,35.00
2019-04-14T02:58:04.347Z,33.50
2019-04-14T03:01:11.838Z,32.70
2019-04-14T03:02:19.651Z,33.70
2019-04-14T03:04:01.472Z,31.60
2019-04-14T03:07:05.480Z,35.10
2019-04-14T03:07:59.909Z,35.40
2019-04-14T03:09:13.855Z,34.00
2019-04-14T03:10:22.277Z,35.90
2019-04-14T03:11:01.312Z,35.00
2019-04-14T03:12:03.013Z,34.20
2019-04-14T03:13:06.820Z,34.10
2019-04-14T03:15:01.369Z,34.60
2019-04-14T03:16:02.170Z,33.00
2019-04-14T03:17:14.658Z,33.40
2019-04-14T03:18:57.918Z,34.30
2019-04-14T03:21:04.398Z,33.50
2019-04-14T03:22:13.111Z,34.90
2019-04-14T03:22:55.676Z,35.10
2019-04-14T03:24:06.052Z,35.20
2019-04-14T03:24:50.390Z,35.40
2019-04-14T03:25:57.410Z,35.00
2019-04-14T03:27:24.779Z,32.50
2019-04-14T03:28:04.168Z,34.20
2019-04-14T03:28:56.467Z,35.80
2019-04-14T03:31:24.631Z,34.10
2019-04-14T03:34:30.367Z,36.40
2019-04-14T03:35:23.256Z,33.50
2019-04-14T03:38:12.836Z,37.60
2019-04-14T03:39:05.989Z,32.90
2019-04-14T03:39:57.264Z,32.90
2019-04-14T03:41:08.885Z,30.50
2019-04-14T03:42:01.623Z,34.70
2019-04-14T03:44:07.166Z,32.40
2019-04-14T03:45:04.177Z,32.70
2019-04-14T03:46:12.863Z,34.00
2019-04-14T03:48:34.439Z,37.70
2019-04-14T03:50:06.141Z,34.90
2019-04-14T03:51:06.828Z,34.80
2019-04-14T03:52:02.489Z,35.80
2019-04-14T03:53:05.889Z,34.80
2019-04-14T03:53:58.678Z,35.10
2019-04-14T03:54:55.250Z,36.90
2019-04-14T03:55:45.326Z,36.90
2019-04-14T03:56:37.545Z,32.60
2019-04-14T03:57:36.620Z,33.30
2019-04-14T03:58:35.773Z,34.20
2019-04-14T03:59:36.669Z,34.00
2019-04-14T04:00:35.672Z,36.80
2019-04-14T04:01:36.654Z,39.10
2019-04-14T04:02:35.949Z,36.50
2019-04-14T04:03:35.413Z,33.70
2019-04-14T04:04:35.851Z,33.00
2019-04-14T04:05:36.675Z,32.80
2019-04-14T04:06:35.641Z,35.30
2019-04-14T04:07:36.411Z,37.10
2019-04-14T04:08:35.542Z,36.30
2019-04-14T04:09:36.432Z,36.00
2019-04-14T04:10:35.702Z,35.00
2019-04-14T04:11:36.544Z,36.80
2019-04-14T04:12:35.763Z,36.50
2019-04-14T04:13:36.558Z,36.20
2019-04-14T04:14:35.732Z,37.10
2019-04-14T04:15:36.427Z,36.80
2019-04-14T04:16:35.514Z,36.60
2019-04-14T04:17:36.294Z,36.00
2019-04-14T04:18:47.449Z,35.10
2019-04-14T04:19:36.239Z,37.40
2019-04-14T04:20:35.267Z,36.50
2019-04-14T04:21:35.569Z,39.40
2019-04-14T04:22:35.198Z,35.70
2019-04-14T04:23:35.652Z,34.70
2019-04-14T04:24:35.218Z,36.70
2019-04-14T04:25:35.372Z,36.80
2019-04-14T04:26:36.476Z,37.90
2019-04-14T04:27:35.243Z,38.40
2019-04-14T04:28:36.326Z,38.10
2019-04-14T04:29:35.159Z,37.60
2019-04-14T04:30:36.209Z,37.90
2019-04-14T04:31:35.118Z,33.90
2019-04-14T04:32:36.238Z,37.60
2019-04-14T04:33:35.080Z,35.30
2019-04-14T04:34:35.859Z,36.70
2019-04-14T04:35:35.063Z,35.40
2019-04-14T04:36:35.643Z,37.60
2019-04-14T04:37:35.040Z,37.70
2019-04-14T04:38:35.582Z,38.50
2019-04-14T04:39:36.563Z,37.00
2019-04-14T04:40:35.344Z,36.70
2019-04-14T04:41:36.328Z,40.40
2019-04-14T04:42:35.169Z,39.00
2019-04-14T04:43:34.986Z,38.60
2019-04-14T04:44:35.638Z,41.80
2019-04-14T04:45:34.961Z,42.30
2019-04-14T04:46:35.167Z,43.60
2019-04-14T04:47:36.168Z,42.00
2019-04-14T04:48:35.022Z,40.00
2019-04-14T04:49:36.059Z,39.10
2019-04-14T04:50:34.916Z,39.30
2019-04-14T04:51:35.702Z,38.80
2019-04-14T04:52:34.891Z,38.30
2019-04-14T04:53:35.417Z,42.30
2019-04-14T04:54:34.875Z,44.30
2019-04-14T04:55:35.167Z,38.40
2019-04-14T04:56:34.840Z,39.80
2019-04-14T04:57:35.166Z,38.30
2019-04-14T04:58:34.891Z,38.60
2019-04-14T04:59:34.824Z,39.80
2019-04-14T05:00:35.259Z,42.00
2019-04-14T05:01:34.831Z,39.80
2019-04-14T05:02:35.289Z,37.40
2019-04-14T05:03:34.766Z,40.30
2019-04-14T05:04:35.106Z,36.50
2019-04-14T05:05:34.758Z,42.70
2019-04-14T05:06:35.124Z,38.20
2019-04-14T05:07:34.763Z,39.70
2019-04-14T05:08:34.860Z,39.60
2019-04-14T05:09:34.703Z,39.80
2019-04-14T05:10:34.999Z,39.50
2019-04-14T05:11:34.686Z,39.50
2019-04-14T05:12:34.919Z,40.60
2019-04-14T05:13:35.901Z,38.50
2019-04-14T05:14:34.805Z,39.10
2019-04-14T05:15:35.562Z,40.20
2019-04-14T05:16:34.655Z,40.40
2019-04-14T05:17:34.620Z,42.50
2019-04-14T05:18:35.554Z,43.00
2019-04-14T05:19:36.547Z,41.00
2019-04-14T05:20:35.605Z,41.10
2019-04-14T05:21:34.583Z,39.80
2019-04-14T05:22:35.393Z,39.50
2019-04-14T05:23:34.562Z,39.00
2019-04-14T05:24:35.351Z,40.50
2019-04-14T05:25:34.547Z,41.40
2019-04-14T05:26:35.132Z,41.70
2019-04-14T05:27:34.551Z,42.00
2019-04-14T05:28:35.280Z,43.70
2019-04-14T05:29:34.509Z,43.90
2019-04-14T05:30:34.988Z,41.40
2019-04-14T05:31:34.476Z,43.60
2019-04-14T05:32:34.774Z,40.80
2019-04-14T05:33:34.475Z,41.00
2019-04-14T05:34:34.769Z,40.80
2019-04-14T05:35:34.447Z,42.80
2019-04-14T05:36:34.648Z,42.80
2019-04-14T05:37:35.463Z,41.00
2019-04-14T05:38:35.505Z,42.50
2019-04-14T05:39:35.421Z,45.10
2019-04-14T05:40:34.413Z,41.90
2019-04-14T05:41:35.415Z,39.60
2019-04-14T05:42:34.359Z,40.20
2019-04-14T05:43:43.843Z,41.20
2019-04-14T05:44:36.107Z,41.10
2019-04-14T05:45:35.119Z,41.60
2019-04-14T05:46:34.321Z,41.70
2019-04-14T05:47:34.997Z,43.00
2019-04-14T05:48:34.353Z,44.00
2019-04-14T05:49:41.108Z,42.10
2019-04-14T05:50:35.695Z,45.70
2019-04-14T05:51:35.094Z,45.10
2019-04-14T05:52:34.258Z,43.50
2019-04-14T05:53:35.120Z,47.80
2019-04-14T05:54:34.252Z,41.30
2019-04-14T05:55:35.169Z,46.30
2019-04-14T05:56:36.118Z,42.60
2019-04-14T05:57:35.168Z,41.90
2019-04-14T05:58:34.199Z,41.20
2019-04-14T05:59:35.235Z,43.20
2019-04-14T06:00:34.260Z,42.30
2019-04-14T06:01:34.185Z,46.10
2019-04-14T06:02:35.508Z,40.90
2019-04-14T06:03:34.280Z,43.00
2019-04-14T06:04:35.235Z,41.70
2019-04-14T06:05:34.141Z,43.40
2019-04-14T06:06:34.116Z,40.70
2019-04-14T06:07:34.169Z,43.70
2019-04-14T06:08:34.099Z,46.00
2019-04-14T06:09:34.083Z,42.10
2019-04-14T06:10:34.081Z,43.70
2019-04-14T06:11:34.082Z,41.20
2019-04-14T06:12:34.050Z,41.50
2019-04-14T06:13:34.046Z,45.20
2019-04-14T06:14:34.041Z,41.00
2019-04-14T06:15:34.021Z,42.20
2019-04-14T06:16:34.015Z,42.90
2019-04-14T06:17:34.008Z,38.50
2019-04-14T06:18:33.989Z,40.00
2019-04-14T06:19:39.041Z,40.70
2019-04-14T06:20:34.966Z,40.90
2019-04-14T06:21:33.966Z,42.00
2019-04-14T06:22:33.957Z,41.90
2019-04-14T06:23:33.934Z,39.80
2019-04-14T06:24:33.939Z,39.40
2019-04-14T06:25:36.264Z,41.10
2019-04-14T06:26:33.952Z,37.20
2019-04-14T06:27:33.893Z,37.20
2019-04-14T06:28:33.911Z,37.00
2019-04-14T06:29:33.871Z,39.50
2019-04-14T06:30:33.882Z,37.50
2019-04-14T06:31:33.860Z,39.00
2019-04-14T06:32:33.843Z,37.20
2019-04-14T06:33:33.844Z,38.80
2019-04-14T06:34:33.920Z,38.40
2019-04-14T06:35:33.844Z,39.90
2019-04-14T06:36:33.826Z,41.40
2019-04-14T06:37:33.825Z,38.80
2019-04-14T06:38:33.812Z,41.90
2019-04-14T06:39:33.770Z,37.90
2019-04-14T06:40:33.781Z,39.10
2019-04-14T06:41:33.745Z,37.90
2019-04-14T06:42:33.856Z,37.10
2019-04-14T06:43:33.753Z,39.20
2019-04-14T06:44:33.736Z,37.40
2019-04-14T06:45:33.727Z,39.50
2019-04-14T06:46:33.725Z,38.50
2019-04-14T06:47:33.710Z,36.50
2019-04-14T06:48:33.679Z,38.10
2019-04-14T06:49:33.684Z,40.70
2019-04-14T06:50:33.669Z,37.90
2019-04-14T06:51:33.747Z,38.80
2019-04-14T06:52:33.866Z,38.60
2019-04-14T06:53:33.687Z,40.40
2019-04-14T06:54:33.693Z,38.20
2019-04-14T06:55:33.689Z,37.90
2019-04-14T06:56:33.603Z,39.00
2019-04-14T06:57:33.635Z,35.70
2019-04-14T06:58:33.590Z,39.40
2019-04-14T06:59:33.562Z,36.40
2019-04-14T07:00:33.632Z,36.60
2019-04-14T07:01:33.540Z,37.20
2019-04-14T07:02:33.542Z,36.70
2019-04-14T07:03:33.561Z,36.40
2019-04-14T07:04:33.656Z,34.90
2019-04-14T07:05:33.491Z,37.10
2019-04-14T07:06:33.492Z,36.00
2019-04-14T07:07:33.578Z,35.40
2019-04-14T07:08:33.678Z,34.10
2019-04-14T07:09:33.611Z,35.50
2019-04-14T07:10:33.474Z,35.80
2019-04-14T07:11:33.439Z,35.60
2019-04-14T07:12:33.474Z,35.30
2019-04-14T07:13:33.575Z,34.20
2019-04-14T07:14:33.439Z,35.60
2019-04-14T07:15:33.427Z,36.70
2019-04-14T07:16:33.391Z,34.90
2019-04-14T07:17:33.394Z,33.20
2019-04-14T07:18:33.384Z,34.40
2019-04-14T07:19:33.347Z,38.70
2019-04-14T07:20:33.355Z,34.50
2019-04-14T07:21:33.372Z,35.90
2019-04-14T07:22:33.313Z,33.90
2019-04-14T07:23:33.333Z,35.00
2019-04-14T07:24:33.291Z,34.30
2019-04-14T07:25:33.373Z,35.70
2019-04-14T07:26:33.311Z,34.00
2019-04-14T07:27:33.288Z,32.50
2019-04-14T07:28:33.268Z,35.00
2019-04-14T07:29:33.237Z,33.20
2019-04-14T07:30:33.235Z,32.70
2019-04-14T07:31:33.230Z,33.90
2019-04-14T07:32:33.206Z,34.90
2019-04-14T07:33:33.200Z,34.20
2019-04-14T07:34:36.110Z,33.00
2019-04-14T07:35:33.171Z,28.70
2019-04-14T07:36:33.223Z,29.40
2019-04-14T07:37:33.167Z,29.10
2019-04-14T07:38:33.156Z,30.10
2019-04-14T07:39:33.145Z,27.70
2019-04-14T07:40:33.172Z,29.40
2019-04-14T07:41:33.116Z,29.10
2019-04-14T07:42:33.148Z,28.50
2019-04-14T07:43:33.120Z,27.00
2019-04-14T07:44:33.087Z,27.40
2019-04-14T07:45:33.110Z,27.70
2019-04-14T07:46:33.251Z,26.90
2019-04-14T07:47:33.117Z,26.40
2019-04-14T07:48:33.042Z,26.40
2019-04-14T07:49:33.028Z,27.30
2019-04-14T07:50:33.018Z,26.40
2019-04-14T07:51:33.013Z,27.90
2019-04-14T07:52:33.030Z,26.20
2019-04-14T07:53:32.981Z,27.80
2019-04-14T07:54:32.975Z,26.60
2019-04-14T07:55:32.953Z,27.10
2019-04-14T07:56:32.988Z,25.60
2019-04-14T07:57:32.946Z,24.20
2019-04-14T07:58:32.928Z,27.30
2019-04-14T07:59:32.938Z,25.10
2019-04-14T08:00:32.912Z,24.60
2019-04-14T08:01:32.892Z,24.60
2019-04-14T08:02:32.896Z,24.90
2019-04-14T08:03:32.869Z,23.60
2019-04-14T08:04:32.861Z,24.00
2019-04-14T08:05:32.847Z,23.70
2019-04-14T08:06:32.868Z,21.30
2019-04-14T08:07:32.873Z,24.40
2019-04-14T08:08:32.820Z,23.10
2019-04-14T08:09:32.850Z,23.30
2019-04-14T08:10:32.794Z,24.80
2019-04-14T08:11:32.782Z,22.40
2019-04-14T08:12:35.124Z,22.10
2019-04-14T08:13:32.847Z,23.10
2019-04-14T08:14:32.758Z,23.00
2019-04-14T08:15:32.754Z,24.20
2019-04-14T08:16:32.727Z,23.60
2019-04-14T08:17:32.714Z,21.90
2019-04-14T08:18:32.731Z,21.30
2019-04-14T08:19:32.752Z,22.70
2019-04-14T08:20:32.682Z,19.40
2019-04-14T08:21:32.674Z,19.40
2019-04-14T08:22:32.680Z,19.40
2019-04-14T08:23:32.692Z,19.30
2019-04-14T08:24:32.653Z,19.70
2019-04-14T08:25:32.665Z,15.70
2019-04-14T08:26:32.623Z,18.00
2019-04-14T08:27:32.666Z,17.00
2019-04-14T08:28:32.599Z,19.60
2019-04-14T08:29:32.616Z,16.80
2019-04-14T08:30:32.593Z,17.70
2019-04-14T08:31:32.566Z,17.20
2019-04-14T08:32:32.555Z,16.10
2019-04-14T08:33:32.549Z,16.00
2019-04-14T08:34:32.558Z,17.10
2019-04-14T08:35:32.525Z,18.20
2019-04-14T08:36:33.354Z,18.40
2019-04-14T08:37:32.516Z,14.20
2019-04-14T08:38:32.490Z,16.00
2019-04-14T08:39:32.501Z,16.50
2019-04-14T08:40:32.475Z,16.60
2019-04-14T08:41:32.483Z,15.60
2019-04-14T08:42:32.517Z,15.50
2019-04-14T08:43:32.459Z,15.90
2019-04-14T08:44:32.426Z,14.90
2019-04-14T08:45:32.418Z,14.50
2019-04-14T08:46:32.443Z,15.10
2019-04-14T08:47:32.432Z,15.40
2019-04-14T08:48:32.407Z,14.60
2019-04-14T08:49:32.371Z,15.00
2019-04-14T08:50:39.360Z,15.00
2019-04-14T08:51:33.367Z,13.50
2019-04-14T08:52:32.376Z,14.60
2019-04-14T08:53:32.329Z,13.90
2019-04-14T08:54:32.320Z,15.40
2019-04-14T08:55:32.381Z,15.90
2019-04-14T08:56:32.363Z,14.70
2019-04-14T08:57:32.291Z,13.80
2019-04-14T08:58:32.318Z,13.90
2019-04-14T08:59:32.281Z,13.70
2019-04-14T09:00:32.317Z,13.90
2019-04-14T09:01:32.246Z,13.50
2019-04-14T09:02:32.248Z,13.80
2019-04-14T09:03:32.233Z,14.20
2019-04-14T09:04:32.216Z,13.20
2019-04-14T09:05:32.224Z,13.80
2019-04-14T09:06:32.264Z,14.00
2019-04-14T09:07:32.186Z,13.20
2019-04-14T09:08:32.193Z,13.40
2019-04-14T09:09:32.166Z,13.40
2019-04-14T09:10:32.153Z,13.20
2019-04-14T09:11:32.144Z,13.80
2019-04-14T09:12:32.179Z,13.40
2019-04-14T09:13:32.122Z,14.70
2019-04-14T09:14:32.123Z,13.10
2019-04-14T09:15:32.119Z,13.20
2019-04-14T09:16:32.091Z,14.60
2019-04-14T09:17:32.081Z,13.40
2019-04-14T09:18:32.084Z,13.70
2019-04-14T09:19:32.075Z,13.50
2019-04-14T09:20:32.052Z,12.60
2019-04-14T09:21:32.041Z,13.40
2019-04-14T09:22:32.031Z,14.10
2019-04-14T09:23:32.022Z,13.10
2019-04-14T09:24:32.053Z,13.50
2019-04-14T09:25:32.001Z,13.70
2019-04-14T09:26:31.991Z,13.20
2019-04-14T09:27:32.046Z,13.20
2019-04-14T09:28:32.010Z,13.60
2019-04-14T09:29:31.962Z,13.30
2019-04-14T09:30:31.990Z,12.80
2019-04-14T09:31:31.942Z,14.10
2019-04-14T09:32:31.930Z,13.10
2019-04-14T09:33:31.939Z,12.80
2019-04-14T09:34:31.928Z,13.70
2019-04-14T09:35:31.900Z,13.80
2019-04-14T09:36:31.931Z,13.40
2019-04-14T09:37:31.879Z,13.80
2019-04-14T09:38:31.908Z,14.70
2019-04-14T09:39:31.865Z,14.00
2019-04-14T09:40:31.849Z,12.70
2019-04-14T09:41:31.853Z,13.30
2019-04-14T09:42:31.891Z,12.80
2019-04-14T09:43:31.822Z,13.70
2019-04-14T09:44:31.809Z,13.00
2019-04-14T09:45:31.801Z,13.50
2019-04-14T09:46:31.803Z,13.10
2019-04-14T09:47:31.783Z,14.40
2019-04-14T09:48:31.872Z,13.70
2019-04-14T09:49:31.758Z,13.10
2019-04-14T09:50:31.748Z,14.10
2019-04-14T09:51:31.774Z,13.20
2019-04-14T09:52:31.729Z,12.80
2019-04-14T09:53:31.734Z,13.10
2019-04-14T09:54:31.766Z,13.70
2019-04-14T09:55:31.699Z,14.40
2019-04-14T09:56:31.687Z,13.90
2019-04-14T09:57:31.679Z,13.40
2019-04-14T09:58:31.668Z,14.40
2019-04-14T09:59:31.654Z,14.20
2019-04-14T10:00:31.699Z,13.90
2019-04-14T10:01:31.649Z,13.70
2019-04-14T10:02:31.633Z,13.30
2019-04-14T10:03:31.672Z,14.10
2019-04-14T10:04:31.601Z,12.20
2019-04-14T10:05:31.590Z,12.80
2019-04-14T10:06:31.638Z,13.10
2019-04-14T10:07:31.569Z,11.70
2019-04-14T10:08:31.568Z,12.00
2019-04-14T10:09:31.549Z,12.30
2019-04-14T10:10:31.537Z,12.00
2019-04-14T10:11:31.548Z,12.30
2019-04-14T10:12:31.555Z,12.60
2019-04-14T10:13:31.507Z,13.20
2019-04-14T10:14:31.509Z,12.30
2019-04-14T10:15:31.485Z,12.00
2019-04-14T10:16:31.486Z,13.20
2019-04-14T10:17:31.466Z,13.40
2019-04-14T10:18:31.495Z,12.40
2019-04-14T10:19:31.444Z,11.90
2019-04-14T10:20:31.439Z,12.20
2019-04-14T10:21:31.462Z,13.00
2019-04-14T10:22:34.068Z,12.00
2019-04-14T10:23:31.403Z,11.20
2019-04-14T10:24:31.427Z,12.00
2019-04-14T10:25:31.396Z,11.50
2019-04-14T10:26:31.374Z,11.20
2019-04-14T10:27:31.359Z,13.40
2019-04-14T10:28:31.350Z,11.30
2019-04-14T10:29:31.336Z,11.20
2019-04-14T10:30:31.355Z,11.30
2019-04-14T10:31:31.393Z,12.10
2019-04-14T10:32:31.309Z,10.60
2019-04-14T10:33:31.295Z,11.40
2019-04-14T10:34:31.295Z,10.70
2019-04-14T10:35:31.272Z,12.00
2019-04-14T10:36:31.277Z,11.40
2019-04-14T10:37:31.281Z,12.40
2019-04-14T10:38:31.243Z,12.70
2019-04-14T10:39:31.230Z,11.20
2019-04-14T10:40:31.219Z,11.30
2019-04-14T10:41:31.225Z,11.50
2019-04-14T10:42:31.198Z,11.20
2019-04-14T10:43:31.227Z,11.20
2019-04-14T10:44:31.177Z,11.80
2019-04-14T10:45:31.166Z,12.00
2019-04-14T10:46:31.157Z,11.90
2019-04-14T10:47:31.167Z,11.80
2019-04-14T10:48:31.136Z,10.70
2019-04-14T10:49:31.145Z,13.10
2019-04-14T10:50:31.416Z,11.20
2019-04-14T10:51:33.955Z,11.50
2019-04-14T10:52:31.102Z,12.60
2019-04-14T10:53:31.091Z,11.70
2019-04-14T10:54:31.071Z,12.50
2019-04-14T10:55:31.078Z,10.70
2019-04-14T10:56:31.049Z,12.10
2019-04-14T10:57:31.064Z,12.20
2019-04-14T10:58:31.038Z,12.70
2019-04-14T10:59:31.046Z,12.00
2019-04-14T11:00:31.009Z,12.40
2019-04-14T11:01:31.004Z,13.00
2019-04-14T11:02:30.985Z,11.50
2019-04-14T11:03:30.989Z,11.60
2019-04-14T11:04:30.963Z,12.50
2019-04-14T11:05:30.952Z,12.50
2019-04-14T11:06:30.941Z,12.80
2019-04-14T11:07:30.946Z,13.80
2019-04-14T11:08:30.919Z,13.80
2019-04-14T11:09:30.930Z,11.80
2019-04-14T11:10:30.898Z,13.30
2019-04-14T11:11:30.899Z,13.20
2019-04-14T11:12:30.901Z,11.50
2019-04-14T11:13:30.866Z,12.10
2019-04-14T11:14:30.857Z,13.70
2019-04-14T11:15:30.857Z,12.60
2019-04-14T11:16:30.835Z,12.40
2019-04-14T11:17:30.824Z,14.00
2019-04-14T11:18:30.855Z,12.50
2019-04-14T11:19:30.802Z,13.00
2019-04-14T11:20:30.820Z,11.60
2019-04-14T11:21:42.012Z,12.90
2019-04-14T11:22:31.916Z,14.00
2019-04-14T11:23:30.862Z,14.10
2019-04-14T11:24:30.772Z,12.30
2019-04-14T11:25:30.749Z,13.20
2019-04-14T11:26:30.743Z,11.40
2019-04-14T11:27:30.734Z,11.00
2019-04-14T11:28:30.708Z,12.90
2019-04-14T11:29:30.703Z,12.60
2019-04-14T11:30:30.786Z,12.90
2019-04-14T11:31:30.676Z,12.80
2019-04-14T11:32:30.660Z,12.70
2019-04-14T11:33:30.689Z,13.00
2019-04-14T11:34:30.665Z,12.70
2019-04-14T11:35:30.639Z,13.90
2019-04-14T11:36:30.619Z,11.40
2019-04-14T11:37:30.606Z,12.40
2019-04-14T11:38:30.657Z,13.50
2019-04-14T11:39:30.590Z,13.10
2019-04-14T11:40:30.585Z,14.50
2019-04-14T11:41:30.580Z,12.30
2019-04-14T11:42:30.554Z,20.70
2019-04-14T11:43:30.558Z,12.70
2019-04-14T11:44:30.578Z,18.50
2019-04-14T11:45:30.546Z,13.60
2019-04-14T11:46:30.511Z,14.70
2019-04-14T11:47:30.497Z,13.90
2019-04-14T11:48:30.485Z,14.00
2019-04-14T11:49:30.501Z,15.00
2019-04-14T11:50:30.583Z,15.20
2019-04-14T11:51:30.458Z,12.00
2019-04-14T11:52:30.454Z,12.80
2019-04-14T11:53:30.477Z,12.20
2019-04-14T11:54:30.441Z,13.30
2019-04-14T11:55:30.413Z,12.50
2019-04-14T11:56:30.508Z,15.80
2019-04-14T11:57:30.411Z,12.80
2019-04-14T11:58:30.388Z,12.80
2019-04-14T11:59:30.374Z,11.80
2019-04-14T12:00:30.371Z,12.10
2019-04-14T12:01:30.374Z,12.10
2019-04-14T12:02:30.364Z,13.00
2019-04-14T12:03:32.286Z,13.80
2019-04-14T12:04:30.348Z,12.40
2019-04-14T12:05:30.305Z,11.80
2019-04-14T12:06:30.315Z,12.50
2019-04-14T12:07:30.302Z,12.90
2019-04-14T12:08:30.310Z,14.40
2019-04-14T12:09:30.264Z,12.20
2019-04-14T12:10:30.265Z,14.20
2019-04-14T12:11:30.239Z,11.60
2019-04-14T12:12:30.241Z,14.20
2019-04-14T12:13:30.232Z,13.50
2019-04-14T12:14:30.239Z,14.00
2019-04-14T12:15:30.247Z,12.20
2019-04-14T12:16:30.185Z,13.00
2019-04-14T12:17:30.175Z,13.80
2019-04-14T12:18:30.164Z,12.50
2019-04-14T12:19:30.181Z,14.60
2019-04-14T12:20:30.139Z,14.70
2019-04-14T12:21:30.158Z,12.70
2019-04-14T12:22:30.184Z,13.00
2019-04-14T12:23:30.258Z,14.00
2019-04-14T12:24:30.119Z,12.90
2019-04-14T12:25:30.105Z,14.10
2019-04-14T12:26:30.131Z,12.50
2019-04-14T12:27:30.062Z,14.10
2019-04-14T12:28:30.063Z,13.60
2019-04-14T12:29:30.485Z,14.80
2019-04-14T12:30:31.218Z,11.50
2019-04-14T12:31:30.956Z,11.90
2019-04-14T12:32:30.027Z,12.50
2019-04-14T12:33:30.014Z,13.30
2019-04-14T12:34:29.989Z,13.60
2019-04-14T12:35:29.986Z,11.80
2019-04-14T12:36:29.979Z,12.40
2019-04-14T12:37:29.961Z,13.20
2019-04-14T12:38:29.986Z,12.30
2019-04-14T12:39:29.953Z,12.40
2019-04-14T12:40:29.926Z,12.10
2019-04-14T12:41:30.994Z,12.00
2019-04-14T12:42:29.929Z,12.30
2019-04-14T12:43:29.902Z,12.90
2019-04-14T12:44:29.884Z,13.50
2019-04-14T12:45:29.896Z,12.80
2019-04-14T12:46:29.887Z,12.80
2019-04-14T12:47:29.844Z,12.20
2019-04-14T12:48:29.832Z,12.10
2019-04-14T12:49:29.918Z,14.70
2019-04-14T12:50:29.810Z,12.30
2019-04-14T12:51:29.814Z,13.40
2019-04-14T12:52:29.841Z,13.30
2019-04-14T12:53:29.779Z,12.30
2019-04-14T12:54:29.780Z,12.00
2019-04-14T12:55:29.790Z,12.80
2019-04-14T12:56:29.769Z,13.00
2019-04-14T12:57:29.742Z,12.20
2019-04-14T12:58:29.764Z,11.20
2019-04-14T12:59:29.727Z,11.60
2019-04-14T13:00:29.716Z,12.50
2019-04-14T13:01:29.707Z,13.20
2019-04-14T13:02:29.684Z,12.70
2019-04-14T13:03:29.674Z,13.10
2019-04-14T13:04:29.658Z,12.60
2019-04-14T13:05:29.716Z,12.40
2019-04-14T13:06:29.642Z,12.80
2019-04-14T13:07:29.628Z,11.40
2019-04-14T13:08:29.616Z,11.30
2019-04-14T13:09:29.603Z,11.90
2019-04-14T13:10:29.608Z,11.80
2019-04-14T13:11:29.621Z,13.40
2019-04-14T13:12:29.570Z,12.00
2019-04-14T13:13:29.559Z,12.00
2019-04-14T13:14:29.549Z,12.80
2019-04-14T13:15:29.569Z,12.50